createdAt,value
2019-02-17T05:00:40.405Z,96.44
2019-02-17T05:01:36.315Z,96.75
2019-02-17T05:02:35.550Z,97.17
2019-02-17T05:03:35.471Z,97.28
2019-02-17T05:04:35.635Z,96.86
2019-02-17T05:05:35.859Z,97.55
2019-02-17T05:06:35.998Z,97.87
2019-02-17T05:07:36.240Z,97.55
2019-02-17T05:08:36.393Z,97.24
2019-02-17T05:09:36.591Z,97.66
2019-02-17T05:10:36.803Z,97.87
2019-02-17T05:11:36.952Z,97.55
2019-02-17T05:12:37.202Z,97.77
2019-02-17T05:13:37.345Z,96.92
2019-02-17T05:14:37.475Z,96.71
2019-02-17T05:15:37.659Z,96.18
2019-02-17T05:16:37.835Z,96.12
2019-02-17T05:17:37.941Z,96.12
2019-02-17T05:18:38.134Z,95.90
2019-02-17T05:19:38.352Z,95.48
2019-02-17T05:20:38.477Z,95.48
2019-02-17T05:21:38.658Z,95.59
2019-02-17T05:22:39.543Z,96.01
2019-02-17T05:23:40.030Z,95.65
2019-02-17T05:24:39.177Z,95.27
2019-02-17T05:25:39.310Z,95.69
2019-02-17T05:26:39.434Z,95.69
2019-02-17T05:27:39.583Z,95.06
2019-02-17T05:28:39.702Z,94.53
2019-02-17T05:29:39.906Z,94.21
2019-02-17T05:30:51.714Z,94.21
2019-02-17T05:31:41.294Z,94.42
2019-02-17T05:32:40.489Z,94.85
2019-02-17T05:33:40.634Z,94.85
2019-02-17T05:34:40.846Z,94.53
2019-02-17T05:35:40.859Z,94.21
2019-02-17T05:36:41.010Z,94.42
2019-02-17T05:37:41.194Z,94.53
2019-02-17T05:38:41.397Z,94.10
2019-02-17T05:39:41.669Z,94.42
2019-02-17T05:40:41.699Z,94.21
2019-02-17T05:41:41.913Z,94.32
2019-02-17T05:42:42.080Z,94.00
2019-02-17T05:43:42.245Z,94.21
2019-02-17T05:44:42.455Z,93.89
2019-02-17T05:45:42.704Z,93.47
2019-02-17T05:46:42.896Z,93.89
2019-02-17T05:47:43.091Z,93.19
2019-02-17T05:48:43.231Z,92.66
2019-02-17T05:49:43.516Z,92.56
2019-02-17T05:50:43.586Z,92.35
2019-02-17T05:51:43.754Z,92.35
2019-02-17T05:52:43.892Z,92.77
2019-02-17T05:53:44.022Z,92.56
2019-02-17T05:54:44.215Z,93.09
2019-02-17T05:55:44.415Z,93.62
2019-02-17T05:56:44.618Z,93.73
2019-02-17T05:57:44.797Z,94.15
2019-02-17T05:58:44.939Z,95.06
2019-02-17T05:59:45.159Z,96.75
2019-02-17T06:00:45.328Z,97.81
2019-02-17T06:01:45.625Z,97.87
2019-02-17T06:02:45.842Z,98.68
2019-02-17T06:03:46.062Z,98.68
2019-02-17T06:04:46.245Z,98.57
2019-02-17T06:05:46.422Z,99.26
2019-02-17T06:06:46.698Z,99.48
2019-02-17T06:07:46.771Z,98.84
2019-02-17T06:08:46.957Z,98.63
2019-02-17T06:09:47.124Z,98.84
2019-02-17T06:10:47.414Z,97.99
2019-02-17T06:11:47.609Z,97.36
2019-02-17T06:12:47.621Z,97.89
2019-02-17T06:13:47.776Z,97.67
2019-02-17T06:14:47.959Z,97.47
2019-02-17T06:15:48.096Z,96.94
2019-02-17T06:16:48.200Z,97.05
2019-02-17T06:17:48.336Z,95.88
2019-02-17T06:18:48.475Z,94.76
2019-02-17T06:19:48.613Z,94.97
2019-02-17T06:20:48.840Z,95.18
2019-02-17T06:21:49.066Z,94.76
2019-02-17T06:22:48.949Z,95.14
2019-02-17T06:23:49.206Z,94.65
2019-02-17T06:24:49.553Z,94.93
2019-02-17T06:25:49.468Z,95.03
2019-02-17T06:26:49.634Z,94.51
2019-02-17T06:27:49.834Z,94.51
2019-02-17T06:28:50.275Z,94.55
2019-02-17T06:29:50.213Z,94.23
2019-02-17T06:30:50.467Z,94.34
2019-02-17T06:31:50.560Z,94.34
2019-02-17T06:32:50.851Z,93.91
2019-02-17T06:33:50.855Z,94.34
2019-02-17T06:34:51.108Z,93.60
2019-02-17T06:35:51.375Z,93.81
2019-02-17T06:36:52.961Z,93.81
2019-02-17T06:37:52.429Z,94.02
2019-02-17T06:38:53.231Z,93.70
2019-02-17T06:39:52.642Z,93.91
2019-02-17T06:40:52.730Z,94.29
2019-02-17T06:41:54.432Z,94.13
2019-02-17T06:42:53.847Z,93.77
2019-02-17T06:43:53.333Z,93.60
2019-02-17T06:44:53.327Z,92.82
2019-02-17T06:45:53.654Z,92.54
2019-02-17T06:46:53.861Z,92.86
2019-02-17T06:47:53.995Z,92.71
2019-02-17T06:48:54.093Z,92.92
2019-02-17T06:49:54.726Z,92.18
2019-02-17T06:50:54.755Z,91.69
2019-02-17T06:51:54.726Z,91.38
2019-02-17T06:53:23.838Z,91.65
2019-02-17T06:53:57.295Z,91.44
2019-02-17T06:54:55.454Z,91.65
2019-02-17T06:55:55.509Z,91.33
2019-02-17T06:56:55.953Z,91.33
2019-02-17T06:57:55.490Z,91.13
2019-02-17T06:59:19.154Z,92.50
2019-02-17T07:00:18.521Z,93.02
2019-02-17T07:01:24.535Z,93.73
2019-02-17T07:02:19.839Z,93.73
2019-02-17T07:03:19.022Z,94.15
2019-02-17T07:04:19.368Z,93.47
2019-02-17T07:05:19.435Z,93.05
2019-02-17T07:06:19.702Z,93.47
2019-02-17T07:07:19.959Z,92.41
2019-02-17T07:08:19.947Z,92.05
2019-02-17T07:09:21.371Z,91.31
2019-02-17T07:10:21.778Z,90.30
2019-02-17T07:11:23.406Z,89.77
2019-02-17T07:12:21.848Z,89.98
2019-02-17T07:13:22.083Z,89.46
2019-02-17T07:14:22.343Z,89.73
2019-02-17T07:15:22.535Z,89.25
2019-02-17T07:16:22.648Z,89.42
2019-02-17T07:17:22.759Z,89.56
2019-02-17T07:18:24.209Z,89.84
2019-02-17T07:19:23.251Z,89.73
2019-02-17T07:20:23.675Z,89.73
2019-02-17T07:21:24.012Z,89.94
2019-02-17T07:22:23.813Z,90.37
2019-02-17T07:23:24.199Z,90.43
2019-02-17T07:24:24.400Z,90.37
2019-02-17T07:25:30.196Z,91.31
2019-02-17T07:26:26.664Z,91.28
2019-02-17T07:27:24.591Z,91.38
2019-02-17T07:28:24.733Z,90.43
2019-02-17T07:29:24.891Z,90.28
2019-02-17T07:30:25.052Z,89.76
2019-02-17T07:31:34.369Z,89.65
2019-02-17T07:32:26.341Z,89.54
2019-02-17T07:33:25.777Z,88.87
2019-02-17T07:34:25.873Z,89.61
2019-02-17T07:35:26.161Z,89.78
2019-02-17T07:36:26.705Z,88.41
2019-02-17T07:37:33.054Z,88.48
2019-02-17T07:38:28.617Z,88.69
2019-02-17T07:39:27.907Z,88.33
2019-02-17T07:40:26.850Z,87.70
2019-02-17T07:41:27.394Z,87.76
2019-02-17T07:42:27.300Z,87.73
2019-02-17T07:43:27.388Z,88.32
2019-02-17T07:44:27.576Z,87.65
2019-02-17T07:45:28.843Z,88.13
2019-02-17T07:46:28.194Z,87.46
2019-02-17T07:47:28.527Z,86.23
2019-02-17T07:48:28.654Z,84.83
2019-02-17T07:49:29.005Z,84.68
2019-02-17T07:50:28.812Z,84.50
2019-02-17T07:51:29.190Z,83.52
2019-02-17T07:52:29.015Z,83.48
2019-02-17T07:53:30.328Z,82.05
2019-02-17T07:54:29.595Z,81.38
2019-02-17T07:55:29.995Z,80.93
2019-02-17T07:56:30.191Z,79.95
2019-02-17T07:57:30.873Z,80.96
2019-02-17T07:58:30.119Z,78.94
2019-02-17T07:59:30.327Z,78.38
2019-02-17T08:00:30.387Z,77.62
2019-02-17T08:01:30.637Z,76.86
2019-02-17T08:02:30.806Z,75.88
2019-02-17T08:03:31.115Z,74.80
2019-02-17T08:04:31.439Z,75.92
2019-02-17T08:05:31.722Z,74.95
2019-02-17T08:06:31.696Z,74.43
2019-02-17T08:07:32.106Z,73.94
2019-02-17T08:08:32.270Z,72.04
2019-02-17T08:09:32.206Z,71.80
2019-02-17T08:10:33.171Z,70.73
2019-02-17T08:11:33.559Z,72.01
2019-02-17T08:12:32.860Z,71.15
2019-02-17T08:13:32.990Z,68.84
2019-02-17T08:14:33.258Z,68.29
2019-02-17T08:15:33.323Z,68.80
2019-02-17T08:16:34.486Z,67.25
2019-02-17T08:17:33.648Z,69.12
2019-02-17T08:18:33.882Z,68.26
2019-02-17T08:19:34.140Z,68.74
2019-02-17T08:20:36.498Z,68.09
2019-02-17T08:21:34.587Z,66.64
2019-02-17T08:22:34.653Z,65.69
2019-02-17T08:23:34.865Z,67.21
2019-02-17T08:24:35.011Z,65.59
2019-02-17T08:25:35.105Z,65.36
2019-02-17T08:26:35.298Z,63.47
2019-02-17T08:27:35.442Z,62.93
2019-02-17T08:28:35.547Z,62.38
2019-02-17T08:29:35.783Z,62.79
2019-02-17T08:30:35.935Z,61.15
2019-02-17T08:31:36.053Z,62.35
2019-02-17T08:32:36.360Z,60.27
2019-02-17T08:33:36.668Z,61.07
2019-02-17T08:34:36.666Z,60.14
2019-02-17T08:35:36.832Z,60.65
2019-02-17T08:36:37.009Z,59.50
2019-02-17T08:37:37.168Z,59.63
2019-02-17T08:38:37.286Z,59.14
2019-02-17T08:39:37.434Z,61.30
2019-02-17T08:40:37.635Z,60.19
2019-02-17T08:41:37.786Z,63.39
2019-02-17T08:42:38.035Z,58.89
2019-02-17T08:43:38.228Z,62.93
2019-02-17T08:44:38.377Z,62.10
2019-02-17T08:45:38.490Z,62.62
2019-02-17T08:46:38.666Z,63.42
2019-02-17T08:47:38.836Z,62.46
2019-02-17T08:48:38.961Z,62.77
2019-02-17T08:49:39.234Z,62.05
2019-02-17T08:50:39.376Z,62.23
2019-02-17T08:51:39.567Z,62.02
2019-02-17T08:52:39.671Z,61.81
2019-02-17T08:53:39.838Z,61.43
2019-02-17T08:54:39.946Z,62.53
2019-02-17T08:55:40.100Z,62.23
2019-02-17T08:56:40.240Z,62.33
2019-02-17T08:57:40.372Z,62.51
2019-02-17T08:58:40.590Z,60.75
2019-02-17T08:59:40.717Z,61.88
2019-02-17T09:15:33.326Z,57.15
2019-02-17T09:16:33.315Z,57.90
2019-02-17T09:17:33.460Z,58.18
2019-02-17T09:18:33.481Z,58.80
2019-02-17T09:19:33.671Z,58.28
2019-02-17T09:20:33.953Z,57.75
2019-02-17T09:21:34.001Z,57.84
2019-02-17T09:22:34.245Z,57.33
2019-02-17T09:23:34.532Z,56.59
2019-02-17T09:24:34.663Z,54.72
2019-02-17T09:25:36.127Z,57.15
2019-02-17T09:26:36.433Z,57.23
2019-02-17T09:27:36.459Z,54.54
2019-02-17T10:10:43.314Z,33.61
2019-02-17T10:11:42.385Z,33.28
2019-02-17T10:12:42.696Z,31.15
2019-02-17T10:13:42.709Z,29.22
2019-02-17T10:14:42.810Z,29.34
2019-02-17T10:15:43.079Z,30.02
2019-02-17T10:16:43.365Z,30.32
2019-02-17T10:19:07.704Z,29.37
2019-02-17T10:20:07.865Z,28.25
2019-02-17T10:21:07.378Z,27.02
2019-02-17T10:22:07.465Z,28.09
2019-02-17T10:24:50.254Z,27.72
2019-02-17T10:25:50.644Z,26.14
2019-02-17T10:26:50.392Z,27.06
2019-02-17T10:27:50.435Z,27.28
2019-02-17T10:28:50.567Z,29.21
2019-02-17T10:29:50.800Z,30.10
2019-02-17T10:30:50.792Z,29.88
2019-02-17T10:31:51.107Z,29.88
2019-02-17T10:32:51.109Z,28.41
2019-02-17T10:34:13.659Z,28.94
2019-02-17T10:34:51.398Z,29.86
2019-02-17T10:36:03.506Z,29.74
2019-02-17T10:36:54.782Z,29.01
2019-02-17T10:37:54.414Z,29.61
2019-02-17T10:38:53.450Z,26.51
2019-02-17T10:39:53.798Z,27.71
2019-02-17T10:40:53.765Z,29.90
2019-02-17T10:41:54.825Z,29.85
2019-02-17T10:43:08.650Z,27.24
2019-02-17T10:43:55.887Z,27.00
2019-02-17T10:44:55.829Z,25.18
2019-02-17T10:45:54.817Z,24.37
2019-02-17T10:46:56.499Z,26.76
2019-02-17T10:48:13.346Z,24.17
2019-02-17T10:48:58.159Z,25.05
2019-02-17T10:49:55.790Z,26.13
2019-02-17T10:50:57.762Z,24.44
2019-02-17T10:52:47.517Z,24.63
2019-02-17T10:53:50.245Z,24.11
2019-02-17T10:55:35.546Z,25.97
2019-02-17T10:56:35.324Z,26.96
2019-02-17T10:57:35.738Z,26.75
2019-02-17T11:30:37.412Z,20.89
2019-02-17T11:31:38.695Z,21.16
2019-02-17T11:32:38.660Z,21.16
2019-02-17T11:33:38.782Z,21.35
2019-02-17T11:34:39.146Z,20.55
2019-02-17T11:35:39.101Z,20.24
2019-02-17T11:36:39.264Z,20.12
2019-02-17T11:37:39.450Z,19.93
2019-02-17T11:38:39.639Z,20.31
2019-02-17T11:39:39.875Z,19.93
2019-02-17T11:40:41.654Z,21.24
2019-02-17T11:41:40.270Z,20.64
2019-02-17T11:42:40.259Z,19.82
2019-02-17T11:43:43.708Z,20.30
2019-02-17T11:44:43.743Z,20.49
2019-02-17T11:47:24.192Z,21.55
2019-02-17T11:48:24.329Z,19.68
2019-02-17T11:49:24.365Z,19.98
2019-02-17T11:50:24.655Z,20.07
2019-02-17T11:51:25.833Z,21.18
2019-02-17T11:52:26.085Z,20.57
2019-02-17T11:53:26.281Z,20.09
2019-02-17T11:54:26.453Z,20.28
2019-02-17T11:55:26.659Z,21.47
2019-02-17T11:56:26.860Z,21.26
2019-02-17T11:57:27.061Z,21.26
2019-02-17T11:58:27.178Z,20.35
2019-02-17T11:59:27.497Z,20.24
2019-02-17T12:00:27.571Z,19.34
2019-02-17T12:01:27.791Z,18.55
2019-02-17T12:02:28.009Z,19.44
2019-02-17T12:03:28.200Z,17.36
2019-02-17T12:04:28.443Z,19.13
2019-02-17T12:05:28.553Z,18.65
2019-02-17T12:06:28.750Z,17.79
2019-02-17T12:07:29.092Z,19.54
2019-02-17T12:08:29.161Z,17.85
2019-02-17T12:09:29.412Z,17.46
2019-02-17T12:10:29.643Z,18.15
2019-02-17T12:11:29.853Z,18.15
2019-02-17T12:12:30.114Z,17.85
2019-02-17T12:13:30.234Z,18.55
2019-02-17T12:14:30.423Z,18.46
2019-02-17T12:15:30.657Z,18.96
2019-02-17T12:16:36.896Z,18.87
2019-02-17T12:17:33.083Z,19.86
2019-02-17T12:18:31.232Z,20.06
2019-02-17T12:19:31.486Z,18.38
2019-02-17T12:20:31.592Z,19.08
2019-02-17T12:21:31.874Z,19.04
2019-02-17T12:22:31.992Z,20.04
2019-02-17T12:23:32.092Z,20.35
2019-02-17T12:24:32.216Z,21.14
2019-02-17T12:25:32.386Z,20.07
2019-02-17T12:26:32.495Z,20.87
2019-02-17T12:27:32.714Z,21.97
2019-02-17T12:28:32.965Z,20.97
2019-02-17T12:29:33.039Z,21.78
2019-02-17T12:30:33.269Z,21.27
2019-02-17T12:31:33.536Z,20.86
2019-02-17T12:32:33.661Z,21.80
2019-02-17T12:33:33.783Z,21.89
2019-02-17T12:34:34.186Z,21.63
2019-02-17T12:35:34.482Z,22.52
2019-02-17T12:36:34.622Z,21.13
2019-02-17T12:37:34.575Z,22.96
2019-02-17T12:38:34.663Z,22.17
2019-02-17T12:39:34.858Z,22.97
2019-02-17T12:40:35.138Z,23.46
2019-02-17T12:41:35.199Z,23.61
2019-02-17T12:42:35.429Z,20.92
2019-02-17T12:43:35.590Z,22.00
2019-02-17T12:44:35.756Z,21.91
2019-02-17T12:45:35.824Z,21.95
2019-02-17T13:06:22.875Z,22.00
2019-02-17T13:07:26.662Z,21.40
2019-02-17T13:08:25.726Z,21.78
2019-02-17T13:09:24.666Z,20.50
2019-02-17T13:10:27.475Z,20.38
2019-02-17T13:11:25.758Z,20.36
2019-02-17T13:12:25.438Z,19.96
2019-02-17T13:13:29.140Z,20.50
2019-02-17T13:14:59.899Z,21.03
2019-02-17T13:15:27.713Z,23.61
2019-02-17T13:16:25.666Z,21.24
2019-02-17T13:17:25.940Z,21.97
2019-02-17T13:18:26.198Z,23.35
2019-02-17T13:19:26.442Z,22.84
2019-02-17T13:20:27.280Z,21.94
2019-02-17T13:21:29.064Z,21.24
2019-02-17T13:22:27.770Z,24.16
2019-02-17T13:23:27.074Z,23.27
2019-02-17T13:24:27.734Z,22.88
2019-02-17T13:25:30.566Z,23.67
2019-02-17T13:26:28.101Z,21.98
2019-02-17T13:27:28.329Z,23.78
2019-02-17T13:28:28.542Z,23.41
2019-02-17T13:29:28.971Z,21.99
2019-02-17T13:30:29.994Z,21.87
2019-02-17T13:31:29.502Z,21.76
2019-02-17T13:32:29.391Z,23.57
2019-02-17T13:33:38.535Z,22.49
2019-02-17T13:34:30.213Z,23.69
2019-02-17T13:35:29.416Z,23.10
2019-02-17T13:36:30.306Z,23.38
2019-02-17T13:37:30.371Z,23.41
2019-02-17T13:38:31.284Z,23.71
2019-02-17T13:39:31.210Z,22.30
2019-02-17T13:40:30.343Z,22.29
2019-02-17T13:41:30.611Z,24.18
2019-02-17T13:42:30.897Z,22.39
2019-02-17T13:43:32.597Z,23.33
2019-02-17T13:44:32.329Z,22.38
2019-02-17T13:45:32.968Z,24.30
2019-02-17T13:46:31.467Z,24.19
2019-02-17T13:47:32.209Z,23.80
2019-02-17T13:48:31.730Z,24.01
2019-02-17T13:49:31.879Z,24.79
2019-02-17T13:50:32.550Z,24.17
2019-02-17T13:51:32.626Z,23.15
2019-02-17T13:52:32.938Z,23.23
2019-02-17T13:53:32.783Z,22.61
2019-02-17T13:54:32.851Z,22.00
2019-02-17T13:55:33.350Z,23.30
2019-02-17T13:56:33.403Z,22.02
2019-02-17T13:57:33.369Z,23.26
2019-02-17T13:58:33.696Z,24.16
2019-02-17T13:59:33.919Z,23.07
2019-02-17T14:00:33.857Z,24.05
2019-02-17T14:01:34.151Z,23.75
2019-02-17T14:02:34.328Z,23.18
2019-02-17T14:03:34.533Z,23.28
2019-02-17T14:13:07.037Z,31.05
2019-02-17T14:17:18.522Z,25.99
2019-02-17T14:18:18.769Z,25.96
2019-02-17T14:19:18.856Z,25.05
2019-02-17T14:20:19.139Z,24.98
2019-02-17T14:21:19.326Z,25.27
2019-02-17T14:22:19.360Z,25.95
2019-02-17T14:23:19.482Z,24.64
2019-02-17T14:28:14.459Z,24.45
2019-02-17T14:29:14.606Z,25.56
2019-02-17T14:30:14.757Z,24.64
2019-02-17T14:31:14.979Z,26.03
2019-02-17T14:32:15.112Z,25.21
2019-02-17T14:33:15.463Z,24.07
2019-02-17T14:34:15.501Z,24.47
2019-02-17T14:35:16.009Z,23.69
2019-02-17T14:36:20.646Z,24.42
2019-02-17T14:37:22.180Z,25.49
2019-02-17T14:38:18.685Z,24.90
2019-02-17T14:39:19.646Z,24.11
2019-02-17T14:40:19.858Z,24.42
2019-02-17T14:41:20.309Z,24.03
2019-02-17T14:42:29.994Z,26.25
2019-02-17T14:43:22.767Z,24.34
2019-02-17T14:44:21.458Z,24.57
2019-02-17T14:45:21.042Z,25.98
